Observations for NORWICH WEA CNTRE, United Kingdom (EGSH)

EGSH 112320Z AUTO 07002KT 5000 BR NCD 00/M00 Q1024  
EGSH 112250Z AUTO 05002KT 4200 BR FEW030/// M00/M01 Q1024   
EGSH 112220Z AUTO 08001KT 4000 BR NCD M00/M01 Q1024 
EGSH 112150Z AUTO VRB01KT 9999 NCD M00/M01 Q1024
EGSH 112120Z 08001KT 9999 FEW027 M00/M01 Q1024 NOSIG
EGSH 112050Z 11001KT 9999 MIFG NSC M00/M01 Q1025 NOSIG  
EGSH 112020Z 14001KT CAVOK 01/01 Q1025 NOSIG
EGSH 111950Z 00000KT CAVOK 01/01 Q1025 NOSIG
EGSH 111920Z VRB02KT CAVOK 01/00 Q1025 NOSIG
EGSH 111850Z 12003KT CAVOK 01/M00 Q1025 NOSIG   
EGSH 111820Z 11004KT CAVOK 00/M01 Q1025 NOSIG   
EGSH 111750Z 09004KT CAVOK 01/M00 Q1024 NOSIG   
EGSH 111720Z VRB01KT CAVOK 02/00 Q1024 NOSIG
EGSH 111650Z 13003KT CAVOK 03/01 Q1024 NOSIG
EGSH 111620Z 12004KT CAVOK 02/M00 Q1024 NOSIG   
EGSH 111550Z 13002KT CAVOK 04/01 Q1024 NOSIG
EGSH 111520Z 19002KT CAVOK 05/01 Q1024 NOSIG
EGSH 111450Z 20003KT CAVOK 05/02 Q1024 NOSIG
EGSH 111420Z VRB02KT CAVOK 07/02 Q1024 NOSIG
EGSH 111350Z 00000KT CAVOK 08/03 Q1025 NOSIG
EGSH 111320Z 00000KT CAVOK 07/03 Q1025 NOSIG
EGSH 111250Z VRB02KT CAVOK 06/03 Q1025 NOSIG
EGSH 111220Z VRB02KT 9000 FEW024 06/03 Q1025 NOSIG  
EGSH 111150Z VRB02KT 7000 NSC 05/04 Q1026 NOSIG 
EGSH 111120Z VRB02KT 7000 NSC 04/03 Q1026 NOSIG 
EGSH 111050Z 21003KT 5000 BR NSC 03/02 Q1026 NOSIG  
EGSH 111020Z VRB02KT 5000 BR NSC 02/02 Q1026 NOSIG  
EGSH 110950Z 23003KT 5000 BR NSC 02/02 Q1026 NOSIG  
EGSH 110920Z 22003KT 5000 BR NSC 01/01 Q1026 NOSIG  
EGSH 110850Z 21002KT 6000 NSC M01/M01 Q1026 NOSIG   
EGSH 110820Z 20003KT 7000 NSC M02/M02 Q1026 NOSIG   
EGSH 110750Z 23003KT 7000 NSC M02/M02 Q1026 NOSIG   
EGSH 110720Z 23004KT 4500 BR NSC M03/M03 Q1025 NOSIG
EGSH 110650Z 21003KT 4500 BR NSC M02/M02 Q1025 NOSIG
EGSH 110620Z 23002KT 4000 BR NSC M03/M03 Q1025 NOSIG
EGSH 110550Z 26003KT 3000 BR MIFG NSC M01/M01 Q1026 BECMG 1500  
EGSH 110520Z AUTO 28003KT 3300 BR NCD M02/M02 Q1026 
EGSH 110450Z AUTO 25006KT 3600 BR NCD M02/M02 Q1026 
EGSH 110420Z AUTO 24003KT 3200 BR NCD M02/M02 Q1026 
EGSH 110350Z AUTO 23003KT 5000 BR NCD M01/M01 Q1026 
EGSH 110320Z AUTO 22002KT 4400 BR NCD M01/M02 Q1026 
EGSH 110250Z AUTO 24003KT 6000 NCD M02/M02 Q1026
EGSH 110220Z AUTO 26004KT 9999 NCD M01/M01 Q1026
EGSH 110150Z AUTO 27005KT 8000 NCD M00/M01 Q1026
EGSH 110120Z AUTO 27004KT 9999 NCD 01/01 Q1026  
EGSH 110050Z AUTO 27006KT 9999 NCD 01/00 Q1026  
EGSH 110020Z AUTO 27005KT 9000 NCD M00/M01 Q1026
EGSH 102350Z AUTO 28004KT 9999 NCD 01/01 Q1026  
EGSH 102320Z AUTO 26005KT 9999 NCD 01/00 Q1026  
EGSH 102250Z AUTO 28006KT 9999 NCD 01/00 Q1026